Weather at Shelburne Airport

Public forecast

Using degrees Fahrenheit for public forecast. Weather courtesy of forecast.io.

Closest aviation weather report (METAR) to Shelburne Airport

Closest report is Burlington International Airport, 7.5 nm (13.8 km) NNE. Retrieved 2020/10/31 22:54 UTC (1 hour ago):

KBTV 312254Z 17009KT 10SM CLR 03/M09 A3037 RMK AO2 SLP290 T00281094

Closest aviation forecast (TAF) to Shelburne Airport

Closest forecast is Burlington International Airport, 7.5 nm (13.8 km) NNE. Retrieved 2020/10/31 18:22 UTC (6 hours ago):

TAF KBTV 311720Z 3118/0118 19008KT P6SM SKC FM011300 18017G27KT P6SM BKN100 FM011500 18018G28KT P6SM BKN080